Time;durP1;ratioP1;P1;durP2;ratioP2;P2;SDS_P1;SDS_P2;PMS_P1;PMS_P2;Temp;Humidity;BMP_temperature;BMP_pressure;BME280_temperature;BME280_humidity;BME280_pressure;Samples;Min_cycle;Max_cycle;Signal;HPM_P1;HPM_P2
2021/10/15 00:00:25;;;;;;;13.98;7.35;;;;;;;12.63;76.03;100717.22;4924527;29;20071;-80
2021/10/15 00:02:50;;;;;;;9.63;8.10;;;;;;;12.72;76.63;100740.25;4937133;29;20028;-80
2021/10/15 00:05:18;;;;;;;8.75;8.00;;;;;;;12.66;76.56;100735.88;4933478;29;20493;-79
2021/10/15 00:07:43;;;;;;;8.00;7.35;;;;;;;12.65;76.11;100730.66;4935900;29;20079;-82
2021/10/15 00:10:09;;;;;;;7.18;6.57;;;;;;;12.58;76.72;100726.25;4945299;29;20039;-78
2021/10/15 00:12:35;;;;;;;8.65;8.05;;;;;;;12.52;76.75;100727.31;4931139;29;20071;-78
2021/10/15 00:15:01;;;;;;;9.55;8.73;;;;;;;12.53;76.64;100728.16;4896929;29;20047;-76
2021/10/15 00:17:26;;;;;;;9.10;8.23;;;;;;;12.51;76.67;100727.59;4917608;29;20035;-76
2021/10/15 00:19:52;;;;;;;8.07;7.57;;;;;;;12.47;76.90;100723.75;4935076;29;20032;-76
2021/10/15 00:22:17;;;;;;;9.13;8.10;;;;;;;12.38;76.63;100713.34;4917444;29;20032;-77
2021/10/15 00:24:45;;;;;;;8.05;7.28;;;;;;;12.46;77.23;100720.19;4919651;29;20063;-77
2021/10/15 00:27:14;;;;;;;10.68;8.52;;;;;;;12.44;77.35;100714.16;4935757;29;20835;-77
2021/10/15 00:29:39;;;;;;;10.13;9.10;;;;;;;12.40;76.96;100708.38;4917364;29;20039;-77
2021/10/15 00:32:08;;;;;;;8.35;7.75;;;;;;;12.34;77.64;100698.50;4919583;29;20035;-77
2021/10/15 00:34:39;;;;;;;9.00;8.20;;;;;;;12.45;77.21;100709.50;4931260;29;20024;-77
2021/10/15 00:37:04;;;;;;;10.10;9.10;;;;;;;12.28;77.61;100682.31;4939921;29;20074;-78
2021/10/15 00:39:30;;;;;;;10.50;9.05;;;;;;;12.30;77.21;100691.09;4936538;29;20024;-77
2021/10/15 00:41:55;;;;;;;9.27;8.48;;;;;;;12.36;77.37;100699.03;4920082;29;20039;-75
2021/10/15 00:44:21;;;;;;;9.70;8.70;;;;;;;12.37;77.83;100708.94;4921249;29;20067;-79
2021/10/15 00:46:46;;;;;;;10.07;9.00;;;;;;;12.33;77.78;100696.84;4917688;29;20032;-78
2021/10/15 00:49:13;;;;;;;9.55;8.82;;;;;;;12.33;77.67;100702.34;4936896;29;20407;-78
2021/10/15 00:51:42;;;;;;;14.20;9.00;;;;;;;12.32;77.31;100700.69;4930661;29;20062;-77
2021/10/15 00:54:10;;;;;;;8.52;7.65;;;;;;;12.28;77.97;100696.84;4926643;29;20573;-78
2021/10/15 00:56:35;;;;;;;9.65;8.57;;;;;;;12.25;78.24;100700.16;4942464;29;20031;-79
2021/10/15 00:59:01;;;;;;;9.55;7.40;;;;;;;12.22;77.80;100686.94;4918571;29;20060;-79
2021/10/15 01:01:28;;;;;;;10.98;8.32;;;;;;;12.25;77.54;100688.34;4921376;29;20024;-78
2021/10/15 01:03:53;;;;;;;9.23;6.32;;;;;;;12.24;77.25;100687.53;4937083;29;20051;-77
2021/10/15 01:06:19;;;;;;;7.60;6.75;;;;;;;12.25;78.01;100689.19;4950759;29;20004;-77
2021/10/15 01:08:47;;;;;;;7.53;6.88;;;;;;;12.25;77.43;100686.44;4922628;29;20028;-77
2021/10/15 01:11:15;;;;;;;8.30;7.72;;;;;;;12.31;77.62;100685.34;4942593;29;20087;-77
2021/10/15 01:13:41;;;;;;;7.70;7.03;;;;;;;12.35;77.89;100678.22;4913126;29;20036;-77
2021/10/15 01:16:11;;;;;;;8.65;7.88;;;;;;;12.45;77.65;100677.41;4920665;29;20083;-77
2021/10/15 01:18:38;;;;;;;8.05;7.50;;;;;;;12.56;77.83;100678.25;4919687;29;20106;-76
2021/10/15 01:21:16;;;;;;;8.75;7.70;;;;;;;12.61;77.57;100675.50;4924115;29;20035;-77
2021/10/15 01:23:42;;;;;;;9.90;8.77;;;;;;;12.71;77.86;100675.50;4936266;29;20028;-77
2021/10/15 01:26:08;;;;;;;6.97;6.53;;;;;;;12.83;77.66;100677.16;4922576;29;20038;-77
2021/10/15 01:28:35;;;;;;;5.45;5.15;;;;;;;12.88;77.24;100675.22;4935498;29;20031;-77
2021/10/15 01:31:01;;;;;;;7.30;6.85;;;;;;;12.89;77.38;100673.28;4930352;29;20065;-76
2021/10/15 01:33:27;;;;;;;10.80;8.60;;;;;;;12.87;77.76;100675.50;4937797;29;20097;-77
2021/10/15 01:35:58;;;;;;;10.75;8.98;;;;;;;12.80;77.70;100667.53;4928127;29;20036;-78
2021/10/15 01:38:24;;;;;;;9.27;8.38;;;;;;;12.82;77.44;100675.50;4940287;28;20043;-78
2021/10/15 01:40:50;;;;;;;8.93;8.10;;;;;;;12.74;77.59;100663.97;4904775;29;20062;-79
2021/10/15 01:43:21;;;;;;;8.88;8.10;;;;;;;12.80;77.26;100677.69;4935284;29;20043;-80
2021/10/15 01:45:46;;;;;;;9.38;8.52;;;;;;;12.79;77.48;100678.78;4924420;29;20036;-78
2021/10/15 01:48:12;;;;;;;6.90;6.50;;;;;;;12.76;77.55;100677.41;4914231;29;20032;-79
2021/10/15 01:50:37;;;;;;;7.43;7.00;;;;;;;12.80;77.81;100674.97;4925198;29;20020;-79
2021/10/15 01:53:03;;;;;;;7.18;6.70;;;;;;;12.84;77.31;100670.56;4901027;29;20122;-79
2021/10/15 01:55:29;;;;;;;7.47;6.95;;;;;;;12.89;77.35;100676.03;4926293;29;20055;-79
2021/10/15 01:57:54;;;;;;;7.50;6.90;;;;;;;12.93;77.63;100677.13;4890946;29;20074;-79
2021/10/15 02:00:20;;;;;;;7.97;7.15;;;;;;;12.92;77.25;100664.50;4933631;29;20121;-79
2021/10/15 02:02:46;;;;;;;7.60;6.80;;;;;;;12.98;76.84;100682.66;4934223;29;20111;-78
2021/10/15 02:05:14;;;;;;;6.57;6.15;;;;;;;13.00;77.04;100677.69;4906775;29;20028;-79
2021/10/15 02:07:40;;;;;;;8.85;8.05;;;;;;;13.00;77.08;100680.44;4938422;29;20103;-79
2021/10/15 02:10:08;;;;;;;7.53;6.75;;;;;;;13.00;76.30;100677.69;4900538;29;20032;-79
2021/10/15 02:12:40;;;;;;;8.77;8.00;;;;;;;12.97;76.80;100672.75;4921911;29;20031;-79
2021/10/15 02:15:09;;;;;;;8.68;7.93;;;;;;;12.97;77.18;100671.94;4919207;29;20031;-79
2021/10/15 02:17:35;;;;;;;7.90;7.25;;;;;;;13.01;77.18;100675.75;4910997;29;20075;-79
2021/10/15 02:20:03;;;;;;;8.68;7.97;;;;;;;13.04;76.65;100672.44;4901115;29;20048;-80
2021/10/15 02:22:29;;;;;;;8.18;7.57;;;;;;;13.02;76.45;100659.00;4930918;29;20054;-78
2021/10/15 02:24:56;;;;;;;7.40;6.85;;;;;;;13.08;76.58;100668.06;4923951;29;20035;-77
2021/10/15 02:27:32;;;;;;;7.68;7.28;;;;;;;13.00;76.15;100652.97;4939825;28;20035;-78
2021/10/15 02:30:05;;;;;;;6.30;6.00;;;;;;;13.04;76.37;100645.84;4942589;29;20039;-77
2021/10/15 02:32:30;;;;;;;5.90;5.60;;;;;;;13.13;76.54;100659.81;4926928;29;20032;-78
2021/10/15 02:34:58;;;;;;;6.13;5.43;;;;;;;13.18;76.41;100661.75;4913100;29;20442;-77
2021/10/15 02:37:24;;;;;;;4.40;4.18;;;;;;;13.13;76.37;100648.00;4919594;29;20104;-77
2021/10/15 02:39:49;;;;;;;7.38;6.78;;;;;;;13.17;76.15;100638.13;4941975;29;20024;-77
2021/10/15 02:42:15;;;;;;;8.50;7.70;;;;;;;13.18;75.81;100645.25;4911992;29;20035;-78
2021/10/15 02:44:40;;;;;;;9.23;6.28;;;;;;;13.21;76.10;100658.44;4924111;29;20023;-78
2021/10/15 02:47:06;;;;;;;9.18;7.68;;;;;;;13.18;76.18;100650.75;4938528;28;20051;-78
2021/10/15 02:49:32;;;;;;;6.18;5.78;;;;;;;13.16;76.52;100651.03;4942785;28;20083;-78
2021/10/15 02:51:57;;;;;;;8.93;7.38;;;;;;;13.10;76.44;100650.22;4943728;29;20060;-79
2021/10/15 02:54:22;;;;;;;8.27;7.57;;;;;;;13.07;75.96;100653.53;4928678;29;20059;-77
2021/10/15 02:56:48;;;;;;;10.98;7.18;;;;;;;13.02;76.19;100645.28;4922057;29;20063;-76
2021/10/15 02:59:14;;;;;;;9.23;8.32;;;;;;;12.92;76.06;100637.06;4940805;29;20174;-76
2021/10/15 03:01:39;;;;;;;9.13;8.35;;;;;;;12.85;76.26;100644.75;4935216;29;20023;-76
2021/10/15 03:04:06;;;;;;;8.57;7.80;;;;;;;12.81;76.73;100640.94;4950123;28;20039;-75
2021/10/15 03:06:32;;;;;;;8.65;8.05;;;;;;;12.78;76.98;100639.56;4930186;29;20031;-77
2021/10/15 03:08:58;;;;;;;9.75;8.75;;;;;;;12.70;76.68;100638.19;4934408;29;20088;-77
2021/10/15 03:11:23;;;;;;;9.18;8.30;;;;;;;12.65;77.46;100627.22;4945128;29;20087;-77
2021/10/15 03:13:48;;;;;;;7.68;7.15;;;;;;;12.65;77.19;100638.19;4905953;29;20517;-77
2021/10/15 03:16:14;;;;;;;9.27;8.25;;;;;;;12.63;77.33;100629.44;4939698;28;20042;-77
2021/10/15 03:18:39;;;;;;;8.77;8.07;;;;;;;12.63;77.90;100640.41;4938858;29;20036;-78
2021/10/15 03:21:05;;;;;;;8.52;7.55;;;;;;;12.65;77.29;100640.94;4941652;29;20131;-76
2021/10/15 03:23:30;;;;;;;9.10;8.30;;;;;;;12.63;77.45;100632.16;4935225;29;20036;-77
2021/10/15 03:25:57;;;;;;;8.48;7.75;;;;;;;12.61;77.76;100636.28;4934132;29;20027;-77
2021/10/15 03:28:28;;;;;;;7.00;6.50;;;;;;;12.57;77.39;100630.50;4940635;29;20048;-76
2021/10/15 03:30:53;;;;;;;7.93;7.32;;;;;;;12.58;77.40;100637.63;4924253;29;20034;-77
2021/10/15 03:33:19;;;;;;;6.60;6.10;;;;;;;12.53;78.18;100637.66;4906993;29;20542;-77
2021/10/15 03:35:44;;;;;;;9.90;8.25;;;;;;;12.51;77.34;100632.44;4920984;29;20079;-76
2021/10/15 03:38:10;;;;;;;9.93;9.15;;;;;;;12.48;77.98;100632.16;4922046;29;20446;-77
2021/10/15 03:40:36;;;;;;;15.20;9.45;;;;;;;12.43;77.84;100629.44;4921921;29;20031;-77
2021/10/15 03:43:01;;;;;;;10.18;9.18;;;;;;;12.39;78.22;100620.91;4930033;29;20035;-77
2021/10/15 03:45:27;;;;;;;13.88;10.07;;;;;;;12.36;78.80;100625.00;4934977;29;20439;-78
2021/10/15 03:47:55;;;;;;;9.48;8.55;;;;;;;12.35;79.02;100628.88;4927752;29;20054;-77
2021/10/15 03:50:21;;;;;;;8.82;8.15;;;;;;;12.33;78.83;100627.47;4929237;29;20039;-76
2021/10/15 03:52:46;;;;;;;10.20;9.43;;;;;;;12.25;78.83;100617.03;4915474;29;20032;-75
2021/10/15 03:55:13;;;;;;;11.13;9.20;;;;;;;12.23;79.08;100620.06;4902566;29;20040;-76
2021/10/15 03:57:39;;;;;;;13.30;10.82;;;;;;;12.16;79.08;100614.03;4915956;29;20399;-80
2021/10/15 04:00:11;;;;;;;13.32;9.50;;;;;;;12.14;79.34;100610.75;4917112;29;20111;-81
2021/10/15 04:02:38;;;;;;;10.18;8.93;;;;;;;12.15;79.29;100623.31;4918779;29;20116;-81
2021/10/15 04:05:05;;;;;;;10.82;9.73;;;;;;;12.13;79.36;100620.84;4898335;29;20092;-81
2021/10/15 04:07:31;;;;;;;12.45;9.57;;;;;;;12.09;79.61;100627.16;4923851;29;20387;-81
2021/10/15 04:09:56;;;;;;;11.32;10.10;;;;;;;12.06;79.91;100625.78;4903640;29;20038;-80
2021/10/15 04:12:21;;;;;;;11.25;9.07;;;;;;;11.99;79.59;100620.56;4882787;29;20074;-81
2021/10/15 04:14:50;;;;;;;10.82;9.93;;;;;;;11.99;79.21;100626.06;4901368;29;20028;-81
2021/10/15 04:17:15;;;;;;;10.52;9.40;;;;;;;11.83;80.19;100603.25;4905951;29;20033;-79
2021/10/15 04:19:51;;;;;;;;;;;;;;;;;;;;;
2021/10/15 04:22:17;;;;;;;10.02;9.23;;;;;;;11.96;80.47;100626.59;4917695;29;20119;-80
2021/10/15 04:25:02;;;;;;;14.55;12.20;;;;;;;11.86;80.04;100607.38;4918550;29;20058;-79
2021/10/15 04:27:35;;;;;;;13.57;10.10;;;;;;;11.83;80.56;100605.16;4916635;29;20043;-78
2021/10/15 04:30:01;;;;;;;11.30;10.13;;;;;;;11.87;80.33;100617.22;4899434;29;21400;-78
2021/10/15 04:32:37;;;;;;;14.57;11.60;;;;;;;11.80;80.50;100611.19;4911634;29;20036;-77
2021/10/15 04:35:03;;;;;;;12.20;10.40;;;;;;;11.90;80.54;100627.66;4917474;29;20080;-78
2021/10/15 04:37:28;;;;;;;14.20;11.35;;;;;;;11.81;81.18;100618.28;4912351;29;20028;-77
2021/10/15 04:39:54;;;;;;;16.00;11.30;;;;;;;11.83;80.91;100618.88;4917894;29;20472;-77
2021/10/15 04:42:19;;;;;;;14.85;11.38;;;;;;;11.85;81.51;100627.63;4909902;29;20042;-77
2021/10/15 04:44:45;;;;;;;18.60;12.85;;;;;;;11.90;82.16;100635.03;4877482;29;20036;-77
2021/10/15 04:47:10;;;;;;;15.40;11.55;;;;;;;11.91;81.70;100618.31;4905371;29;20037;-76
2021/10/15 04:49:36;;;;;;;16.67;11.93;;;;;;;11.95;82.48;100624.13;4920062;29;20048;-78
2021/10/15 04:52:02;;;;;;;13.30;11.73;;;;;;;11.98;82.23;100624.41;4901726;29;20032;-76
2021/10/15 04:54:27;;;;;;;13.02;11.55;;;;;;;12.00;82.14;100622.22;4917704;29;20461;-76
2021/10/15 04:56:53;;;;;;;23.67;13.70;;;;;;;12.03;82.58;100632.66;4910076;29;20063;-77
2021/10/15 04:59:18;;;;;;;16.30;12.70;;;;;;;12.04;82.35;100623.31;4918988;29;20031;-77
2021/10/15 05:01:44;;;;;;;13.90;11.88;;;;;;;12.14;82.71;100629.94;4901212;29;20036;-78
2021/10/15 05:04:13;;;;;;;18.45;11.65;;;;;;;12.20;82.68;100634.31;4898152;29;20036;-79
2021/10/15 05:06:39;;;;;;;12.27;11.00;;;;;;;12.19;82.01;100624.44;4923126;29;20047;-79
2021/10/15 05:11:43;;;;;;;13.00;11.50;;;;;;;12.27;82.21;100615.69;4919029;29;20067;-79
2021/10/15 05:14:08;;;;;;;16.15;11.80;;;;;;;12.30;81.92;100634.34;4928129;29;20056;-78
2021/10/15 05:16:34;;;;;;;12.40;11.05;;;;;;;12.24;81.70;100616.22;4919965;29;20035;-78
2021/10/15 05:18:59;;;;;;;12.25;11.05;;;;;;;12.26;81.96;100619.50;4876116;29;20035;-78
2021/10/15 05:21:25;;;;;;;13.65;11.57;;;;;;;12.31;81.82;100627.75;4919447;29;20036;-77
2021/10/15 05:23:50;;;;;;;13.52;11.10;;;;;;;12.31;81.84;100630.50;4940657;29;20035;-77
2021/10/15 05:26:16;;;;;;;17.70;11.00;;;;;;;12.32;82.35;100623.91;4907549;29;20047;-78
2021/10/15 05:28:41;;;;;;;11.60;10.13;;;;;;;12.33;81.88;100631.03;4927845;29;20043;-78
2021/10/15 05:31:07;;;;;;;13.10;11.80;;;;;;;12.36;82.07;100632.41;4924235;29;20032;-76
2021/10/15 05:33:35;;;;;;;12.93;10.75;;;;;;;12.38;81.32;100642.03;4918361;29;20038;-78
2021/10/15 05:36:01;;;;;;;17.65;12.55;;;;;;;12.37;82.08;100637.63;4919584;29;20028;-78
2021/10/15 05:38:27;;;;;;;21.42;10.98;;;;;;;12.40;81.45;100634.34;4915304;29;20040;-77
2021/10/15 05:40:52;;;;;;;12.68;11.23;;;;;;;12.36;81.58;100622.25;4914988;29;20108;-78
2021/10/15 05:43:19;;;;;;;11.38;10.25;;;;;;;12.40;81.74;100631.59;4916155;29;20032;-78
2021/10/15 05:45:45;;;;;;;12.65;10.82;;;;;;;12.46;81.72;100631.63;4889429;29;20115;-76
2021/10/15 05:48:10;;;;;;;12.40;10.07;;;;;;;12.42;81.49;100625.84;4908476;29;20119;-76
2021/10/15 05:50:36;;;;;;;11.98;10.63;;;;;;;12.50;81.56;100630.78;4906669;29;20035;-76
2021/10/15 05:53:21;;;;;;;11.32;9.88;;;;;;;12.53;81.43;100629.44;4907284;29;20040;-77
2021/10/15 05:58:53;;;;;;;15.05;10.05;;;;;;;12.49;80.99;100617.34;4917739;29;20055;-79
2021/10/15 06:01:24;;;;;;;10.43;9.45;;;;;;;12.55;81.78;100632.69;4919092;29;20475;-77
2021/10/15 06:04:43;;;;;;;12.85;10.75;;;;;;;12.53;81.59;100626.69;4915660;29;20044;-77
2021/10/15 06:14:31;;;;;;;16.63;10.65;;;;;;;12.53;81.84;100623.94;4930867;29;20052;-79
2021/10/15 06:17:04;;;;;;;12.35;11.13;;;;;;;12.52;82.19;100625.03;4932365;28;20012;-81
2021/10/15 06:19:30;;;;;;;12.80;10.73;;;;;;;12.58;82.48;100634.91;4943785;29;20032;-79
2021/10/15 06:21:55;;;;;;;10.88;9.23;;;;;;;12.58;81.92;100624.72;4935115;29;20024;-80
2021/10/15 06:24:21;;;;;;;15.57;9.93;;;;;;;12.61;82.19;100631.59;4931765;29;20047;-80
2021/10/15 06:26:46;;;;;;;10.73;9.70;;;;;;;12.59;81.66;100628.31;4929915;29;21335;-80
2021/10/15 06:29:12;;;;;;;15.13;10.85;;;;;;;12.61;81.84;100639.81;4934384;29;20143;-80
2021/10/15 06:31:40;;;;;;;19.05;11.02;;;;;;;12.63;82.14;100634.91;4940229;29;20032;-80
2021/10/15 06:34:05;;;;;;;17.05;11.43;;;;;;;12.63;81.93;100640.41;4908876;29;20036;-79
2021/10/15 06:36:31;;;;;;;13.65;10.23;;;;;;;12.67;81.53;100644.22;4917857;29;20032;-79
2021/10/15 06:38:56;;;;;;;10.35;9.25;;;;;;;12.69;81.86;100643.97;4919336;29;20067;-80
2021/10/15 06:41:22;;;;;;;15.95;9.05;;;;;;;12.67;82.17;100633.25;4912234;29;20522;-80
2021/10/15 06:43:47;;;;;;;9.95;8.75;;;;;;;12.67;82.03;100646.94;4919201;29;20024;-80
2021/10/15 06:46:13;;;;;;;10.82;9.85;;;;;;;12.71;81.31;100636.28;4908101;29;20028;-80
2021/10/15 06:48:39;;;;;;;9.93;9.05;;;;;;;12.71;81.88;100641.75;4924895;29;20033;-80
2021/10/15 06:51:05;;;;;;;12.48;10.73;;;;;;;12.71;81.99;100647.25;4912043;29;20111;-79
2021/10/15 06:53:30;;;;;;;11.48;9.80;;;;;;;12.73;82.04;100651.38;4932323;29;20048;-80
2021/10/15 06:55:56;;;;;;;12.65;8.88;;;;;;;12.78;81.87;100652.47;4934713;29;20155;-80
2021/10/15 06:58:22;;;;;;;10.00;9.00;;;;;;;12.82;81.17;100650.78;4934619;29;20028;-80
2021/10/15 07:00:47;;;;;;;12.63;9.88;;;;;;;12.84;81.71;100657.66;4934344;29;20646;-81
2021/10/15 07:03:18;;;;;;;10.63;9.55;;;;;;;12.89;81.73;100657.66;4928959;29;20086;-78
2021/10/15 07:05:44;;;;;;;10.77;7.75;;;;;;;12.97;81.73;100650.78;4931063;29;20668;-79
2021/10/15 07:08:10;;;;;;;9.57;8.55;;;;;;;13.05;81.04;100658.47;4943218;29;20541;-78
2021/10/15 07:10:36;;;;;;;12.27;7.60;;;;;;;13.12;81.10;100665.59;4918009;29;20040;-78
2021/10/15 07:13:01;;;;;;;11.23;8.48;;;;;;;13.13;80.63;100659.00;4956203;29;20057;-81
2021/10/15 07:15:27;;;;;;;17.65;8.63;;;;;;;13.19;81.07;100668.88;4912492;29;22043;-78
2021/10/15 07:17:53;;;;;;;8.82;7.80;;;;;;;13.22;80.31;100668.31;4920632;29;20096;-77
2021/10/15 07:20:18;;;;;;;7.15;6.63;;;;;;;13.25;80.75;100663.09;4934855;29;20459;-80
2021/10/15 07:22:44;;;;;;;8.38;7.70;;;;;;;13.31;80.22;100672.13;4917998;29;20031;-76
2021/10/15 07:25:10;;;;;;;9.23;7.75;;;;;;;13.36;80.51;100674.91;4920867;29;20334;-78
2021/10/15 07:27:37;;;;;;;11.50;8.45;;;;;;;13.41;80.59;100677.63;4913883;29;20032;-79
2021/10/15 07:30:05;;;;;;;10.80;7.85;;;;;;;13.46;80.34;100689.72;4939169;29;20525;-78
2021/10/15 07:32:31;;;;;;;9.57;8.38;;;;;;;13.50;79.80;100679.81;4937824;29;20078;-79
2021/10/15 07:34:56;;;;;;;12.18;8.90;;;;;;;13.52;79.58;100677.59;4933362;29;20035;-77
2021/10/15 07:37:23;;;;;;;13.68;8.43;;;;;;;13.58;79.15;100688.31;4938356;29;20106;-77
2021/10/15 07:39:50;;;;;;;16.90;8.50;;;;;;;13.63;79.06;100698.47;4926739;29;20036;-77
2021/10/15 07:42:15;;;;;;;8.95;8.15;;;;;;;13.64;79.06;100686.38;4901650;29;20096;-78
2021/10/15 07:44:41;;;;;;;9.77;7.45;;;;;;;13.61;79.17;100695.19;4933080;29;20063;-81
2021/10/15 07:47:07;;;;;;;9.50;7.57;;;;;;;13.68;79.41;100703.94;4934763;29;20417;-80
2021/10/15 07:49:37;;;;;;;9.88;7.60;;;;;;;13.67;78.69;100699.53;4943403;29;20027;-79
2021/10/15 07:52:03;;;;;;;11.48;7.53;;;;;;;13.68;78.82;100709.44;4919829;29;20032;-77
2021/10/15 07:54:28;;;;;;;8.30;7.53;;;;;;;13.70;78.55;100712.72;4923762;29;20060;-79
2021/10/15 07:56:56;;;;;;;7.07;6.40;;;;;;;13.81;78.72;100719.00;4905409;29;20070;-79
2021/10/15 07:59:22;;;;;;;8.00;7.50;;;;;;;13.73;78.54;100703.91;4890708;29;20082;-79
2021/10/15 08:01:47;;;;;;;8.63;6.95;;;;;;;13.79;78.22;100716.53;4939370;29;20448;-80
2021/10/15 08:04:13;;;;;;;7.63;6.75;;;;;;;13.77;78.30;100710.50;4933262;29;20703;-78
2021/10/15 08:06:39;;;;;;;8.50;7.75;;;;;;;13.82;77.54;100725.34;4930677;29;20548;-80
2021/10/15 08:09:05;;;;;;;10.88;6.70;;;;;;;13.83;77.69;100724.22;4930959;29;20055;-78
2021/10/15 08:11:31;;;;;;;6.90;6.07;;;;;;;13.82;77.78;100726.16;4931633;29;20027;-78
2021/10/15 08:13:56;;;;;;;8.82;6.78;;;;;;;13.90;77.79;100732.97;4934790;29;20043;-79
2021/10/15 08:16:23;;;;;;;7.38;6.68;;;;;;;13.99;77.98;100731.31;4937025;29;20028;-78
2021/10/15 08:18:49;;;;;;;8.60;6.18;;;;;;;14.14;77.38;100742.22;4935234;29;20034;-76
2021/10/15 08:21:15;;;;;;;7.63;6.88;;;;;;;14.34;77.42;100736.91;4940372;29;20036;-77
2021/10/15 08:23:44;;;;;;;11.07;6.28;;;;;;;14.58;77.30;100745.31;4908062;29;20039;-77
2021/10/15 08:26:10;;;;;;;6.50;5.88;;;;;;;14.80;76.42;100744.91;4935994;29;20111;-77
2021/10/15 08:28:35;;;;;;;9.40;6.18;;;;;;;15.06;76.11;100741.97;4930481;29;20035;-77
2021/10/15 08:31:03;;;;;;;6.68;5.97;;;;;;;15.43;75.42;100741.31;4920702;29;20035;-78
2021/10/15 08:33:29;;;;;;;6.63;4.85;;;;;;;15.98;74.46;100746.53;4920815;29;20039;-76
2021/10/15 08:35:54;;;;;;;6.35;5.18;;;;;;;16.60;73.14;100761.44;4917870;29;20028;-77
2021/10/15 08:38:20;;;;;;;4.57;4.18;;;;;;;16.77;71.43;100756.22;4924360;29;20032;-76
2021/10/15 08:40:47;;;;;;;5.47;5.03;;;;;;;16.66;70.21;100760.25;4937596;29;20066;-75
2021/10/15 08:43:15;;;;;;;6.10;4.63;;;;;;;16.42;70.19;100761.16;4950813;29;20051;-77
2021/10/15 08:45:41;;;;;;;4.72;4.35;;;;;;;16.31;70.24;100773.44;4919798;29;20032;-77
2021/10/15 08:48:07;;;;;;;4.30;3.92;;;;;;;16.45;70.71;100771.59;4936235;29;20035;-77
2021/10/15 08:50:43;;;;;;;2.47;2.38;;;;;;;16.80;70.64;100780.47;4924401;29;20035;-78
2021/10/15 08:53:09;;;;;;;2.58;2.38;;;;;;;17.10;70.30;100786.69;4913456;29;20038;-76
2021/10/15 08:55:34;;;;;;;1.90;1.80;;;;;;;17.38;70.13;100784.00;4934191;29;20052;-76
2021/10/15 08:58:00;;;;;;;2.63;2.42;;;;;;;17.64;69.41;100784.38;4917183;29;20047;-78
2021/10/15 09:00:27;;;;;;;5.97;2.55;;;;;;;17.87;69.07;100787.25;4916993;29;20055;-76
2021/10/15 09:03:12;;;;;;;3.67;2.42;;;;;;;18.47;68.71;100800.16;4904345;29;20076;-75
2021/10/15 09:05:39;;;;;;;7.95;3.45;;;;;;;18.98;68.00;100793.50;4913739;29;20030;-76
2021/10/15 09:08:05;;;;;;;7.38;2.58;;;;;;;19.54;66.34;100794.03;4914675;29;20040;-78
2021/10/15 09:10:36;;;;;;;3.05;2.42;;;;;;;19.91;65.17;100802.22;4912101;29;20036;-78
2021/10/15 09:13:15;;;;;;;4.93;2.47;;;;;;;19.93;63.78;100794.41;4913794;29;20059;-77
2021/10/15 09:15:40;;;;;;;7.18;3.25;;;;;;;19.76;61.51;100806.22;4916255;29;20032;-77
2021/10/15 09:18:17;;;;;;;2.30;1.45;;;;;;;19.65;62.17;100807.63;4917977;29;20040;-77
2021/10/15 09:20:44;;;;;;;1.50;1.40;;;;;;;19.57;62.78;100805.63;4928777;29;20118;-76
2021/10/15 09:23:14;;;;;;;1.05;0.95;;;;;;;19.54;62.38;100805.13;4916561;29;20077;-75
2021/10/15 09:25:42;;;;;;;2.30;1.55;;;;;;;19.41;61.87;100803.25;4917397;29;20538;-76
2021/10/15 09:28:19;;;;;;;1.88;1.38;;;;;;;19.12;61.24;100803.69;4932328;29;20039;-76
2021/10/15 09:30:48;;;;;;;1.10;0.90;;;;;;;18.75;61.65;100805.63;4923058;29;20064;-76
2021/10/15 09:33:17;;;;;;;0.82;0.82;;;;;;;18.45;61.59;100807.97;4913190;29;20091;-76
2021/10/15 09:35:42;;;;;;;0.98;0.80;;;;;;;18.31;61.27;100819.03;4908897;29;20595;-71
2021/10/15 09:38:09;;;;;;;0.82;0.80;;;;;;;18.18;61.75;100815.19;4916851;29;20036;-73
2021/10/15 09:40:36;;;;;;;0.80;0.80;;;;;;;18.10;61.13;100825.00;4913821;29;20021;-73
2021/10/15 09:43:06;;;;;;;0.60;0.47;;;;;;;18.09;61.98;100828.06;4921228;29;20119;-72
2021/10/15 09:45:41;;;;;;;0.47;0.47;;;;;;;18.19;61.44;100827.88;4911628;29;20445;-72
2021/10/15 09:48:35;;;;;;;0.98;0.90;;;;;;;18.37;61.63;100833.59;4922735;29;20445;-72
2021/10/15 09:51:17;;;;;;;0.40;0.40;;;;;;;18.57;61.46;100827.63;4910542;29;20096;-73
2021/10/15 09:54:08;;;;;;;0.73;0.28;;;;;;;18.81;60.26;100829.34;4911076;29;20401;-74
2021/10/15 09:56:46;;;;;;;3.30;0.40;;;;;;;19.56;60.92;100832.53;4922401;29;20028;-73
2021/10/15 09:59:12;;;;;;;0.25;0.20;;;;;;;21.00;59.79;100824.88;4925347;29;20027;-73
2021/10/15 10:01:39;;;;;;;0.52;0.30;;;;;;;22.53;56.87;100833.78;4927134;29;20051;-73
2021/10/15 10:04:11;;;;;;;0.40;0.30;;;;;;;24.14;55.96;100833.28;4925532;29;20502;-73
2021/10/15 10:06:37;;;;;;;0.95;0.30;;;;;;;25.61;51.87;100836.09;4930575;29;20064;-73
2021/10/15 10:09:07;;;;;;;0.32;0.20;;;;;;;26.73;49.76;100844.50;4929491;29;20139;-73
2021/10/15 10:11:32;;;;;;;0.30;0.20;;;;;;;27.19;46.06;100836.28;4931326;29;20043;-72
2021/10/15 10:13:58;;;;;;;0.22;0.10;;;;;;;27.99;46.52;100852.66;4919243;29;20039;-74
2021/10/15 10:16:25;;;;;;;0.47;0.10;;;;;;;28.93;43.75;100852.09;4915294;29;20044;-74
2021/10/15 10:18:57;;;;;;;0.25;0.20;;;;;;;29.88;42.35;100852.00;4928305;29;20020;-75
2021/10/15 10:21:28;;;;;;;0.10;0.10;;;;;;;30.74;41.03;100858.31;4911975;29;20020;-74
2021/10/15 10:24:11;;;;;;;0.10;0.10;;;;;;;31.91;37.74;100866.84;4927583;29;21117;-74
2021/10/15 10:26:47;;;;;;;0.35;0.20;;;;;;;32.81;37.44;100866.81;4913570;29;20024;-75
2021/10/15 10:29:13;;;;;;;0.70;0.20;;;;;;;33.44;34.40;100874.66;4922684;29;20154;-73
2021/10/15 10:31:39;;;;;;;0.10;0.10;;;;;;;34.12;34.09;100867.72;4902286;29;20107;-76
2021/10/15 10:34:07;;;;;;;0.25;0.13;;;;;;;34.88;32.66;100881.22;4915771;29;20051;-73
2021/10/15 10:36:35;;;;;;;0.10;0.10;;;;;;;35.46;30.50;100878.50;4934048;29;20034;-73
2021/10/15 10:39:30;;;;;;;0.10;0.10;;;;;;;35.55;29.73;100872.28;4928802;29;20489;-75
2021/10/15 10:42:05;;;;;;;0.10;0.10;;;;;;;35.92;29.74;100879.88;4915098;29;20047;-74
2021/10/15 10:44:36;;;;;;;0.10;0.10;;;;;;;36.61;29.68;100885.22;4930889;29;20034;-74
2021/10/15 10:47:16;;;;;;;0.30;0.20;;;;;;;37.53;27.88;100894.38;4923270;29;20379;-74
2021/10/15 10:50:06;;;;;;;0.50;0.20;;;;;;;37.36;25.69;100891.47;4932084;29;20091;-74
2021/10/15 10:52:57;;;;;;;0.55;0.30;;;;;;;36.81;25.49;100901.53;4928951;29;20045;-72
2021/10/15 10:55:43;;;;;;;0.40;0.17;;;;;;;36.54;26.32;100905.28;4928628;29;20079;-71
2021/10/15 10:58:30;;;;;;;0.17;0.17;;;;;;;35.46;25.73;100906.94;4918703;29;20102;-74
2021/10/15 11:01:19;;;;;;;0.20;0.20;;;;;;;34.02;26.11;100899.84;4934224;29;20028;-71
2021/10/15 11:03:44;;;;;;;0.43;0.28;;;;;;;32.63;27.12;100900.78;4925786;29;20480;-74
2021/10/15 11:06:09;;;;;;;0.20;0.10;;;;;;;31.60;28.35;100896.66;4901570;29;20035;-73
2021/10/15 11:08:36;;;;;;;0.40;0.30;;;;;;;30.81;29.10;100897.88;4931617;29;20480;-71
2021/10/15 11:11:19;;;;;;;0.20;0.20;;;;;;;30.17;29.82;100894.53;4915527;29;20039;-72
2021/10/15 11:13:46;;;;;;;0.10;0.10;;;;;;;29.60;30.25;100898.41;4931220;29;20031;-73
2021/10/15 11:16:22;;;;;;;0.20;0.10;;;;;;;29.23;31.00;100901.97;4930931;29;20041;-72
2021/10/15 11:18:48;;;;;;;0.20;0.20;;;;;;;29.06;31.86;100909.78;4927682;29;20071;-73
2021/10/15 11:21:14;;;;;;;0.17;0.13;;;;;;;28.98;31.77;100908.03;4926192;29;20182;-74
2021/10/15 11:23:56;;;;;;;0.20;0.20;;;;;;;28.91;32.41;100896.69;4907098;29;20047;-73
2021/10/15 11:26:34;;;;;;;0.28;0.20;;;;;;;28.79;32.02;100899.75;4922730;29;20095;-73
2021/10/15 11:28:59;;;;;;;0.22;0.20;;;;;;;28.66;32.38;100916.81;4940127;29;20510;-71
2021/10/15 11:32:22;;;;;;;0.10;0.10;;;;;;;28.50;32.91;100914.16;4943878;29;20114;-72
2021/10/15 11:35:07;;;;;;;0.30;0.30;;;;;;;28.03;33.31;100909.72;4850851;29;20384;-73
2021/10/15 11:37:51;;;;;;;0.20;0.20;;;;;;;27.64;32.97;100921.00;4845014;29;20037;-73
2021/10/15 11:40:29;;;;;;;1.42;0.30;;;;;;;27.02;33.51;100924.50;4933911;29;20036;-71